Aviation Weather View - Albury, NSW
Albury
METAR YMAY 191100Z 12009KT 9999 SCT033 SCT070 BKN099 19/18 Q1005
ADVISORY INFORMATION ONLY.
Information and images sourced on a "best effort" basis from
our own station 2.7NM north of the field at 1016ft AMSL.
Weather information is NOT from the Albury Airport.

Contact Ross on 0409-578-660
Updated 1116Z (19-Jan-2020 at 22:16:00 local)
Temperature 17.7 Deg C
QNH is 1006
Humidity is 100% RH
Dewpoint is 17.7 Deg C
Estimated Cloudbase is BELOW 1000 feet amsl
Wind: 6 KT, gusting to 14 KT from 121 degrees magnetic (109 true)
Runway 07 Crosswind 5KT Right to Left
Runway 25 Crosswind 5KT Left to Right 4KT downwind
Wind last 10 minutes: Average 8 KT
Solar Insolation: 0 W/m^2

TWR: 123.25 SMC: 121.8 AWIS: 134.525 ATIS: 115.6/133.85 Map
How to interpret the wind rose
Wind Rose
Solar Radiation Decoded METAR data
Albury Airport (94896, YMAY)
WMO Index: 95896
ID Name: YMAY
Date/Time: 19-Jan-2020 1100 UTC
Lat/Lon: 36.07S 146.95E
Wind: 120 deg true at 09.0 knots
Temperature: 19.2 deg C
Dewpoint: 17.7 deg C
QNH: 1005.2
Rain since 9am: 5.2
Rain last 10 mins: 0.2
Visibility: -9999 metres
AutoVisibility: 10000 metres
Max Wind Gust last 10 mins: 14.0 knots
Scattered 990m (3247ft)
Scattered 2130m (6986ft)
Broken 3000m (9840ft)

Calculated humidity: 91.0 %RH